createdAt,value
2022-12-17T00:03:02.887Z,90.32
2022-12-17T00:05:48.234Z,91.00
2022-12-17T00:08:40.308Z,96.75
2022-12-17T00:11:42.479Z,88.85
2022-12-17T00:14:35.462Z,86.15
2022-12-17T00:17:21.625Z,94.65
2022-12-17T00:20:06.504Z,95.65
2022-12-17T00:22:51.280Z,89.53
2022-12-17T00:25:36.121Z,85.93
2022-12-17T00:28:20.896Z,87.63
2022-12-17T00:31:21.441Z,88.93
2022-12-17T00:34:06.501Z,83.85
2022-12-17T00:36:51.239Z,87.28
2022-12-17T00:39:36.124Z,82.22
2022-12-17T00:42:20.916Z,85.22
2022-12-17T00:45:11.912Z,87.97
2022-12-17T00:47:56.805Z,76.82
2022-12-17T00:50:41.598Z,83.50
2022-12-17T00:53:27.404Z,72.38
2022-12-17T00:56:12.146Z,87.40
2022-12-17T00:59:03.988Z,77.15
2022-12-17T01:01:51.187Z,82.68
2022-12-17T01:04:37.308Z,82.43
2022-12-17T01:07:22.033Z,87.18
2022-12-17T01:10:06.789Z,87.60
2022-12-17T01:12:51.551Z,77.93
2022-12-17T01:15:37.137Z,82.00
2022-12-17T01:18:57.498Z,84.15
2022-12-17T01:21:42.104Z,86.05
2022-12-17T01:24:27.127Z,83.22
2022-12-17T01:27:11.972Z,74.85
2022-12-17T01:29:56.645Z,81.60
2022-12-17T01:32:41.637Z,73.82
2022-12-17T01:35:27.979Z,80.97
2022-12-17T01:38:12.964Z,76.97
2022-12-17T01:40:57.725Z,90.63
2022-12-17T01:43:53.746Z,86.05
2022-12-17T01:46:41.275Z,84.80
2022-12-17T01:49:28.211Z,90.93
2022-12-17T01:52:13.981Z,76.45
2022-12-17T01:54:59.812Z,83.90
2022-12-17T01:57:45.645Z,58.75
2022-12-17T02:00:34.615Z,78.18
2022-12-17T02:03:19.432Z,67.90
2022-12-17T02:06:29.407Z,77.95
2022-12-17T02:09:35.667Z,73.53
2022-12-17T02:12:33.466Z,61.92
2022-12-17T02:15:32.538Z,64.78
2022-12-17T02:18:30.059Z,59.70
2022-12-17T02:21:16.453Z,59.38
2022-12-17T02:24:20.159Z,57.78
2022-12-17T02:27:10.120Z,59.67
2022-12-17T02:30:02.496Z,58.72
2022-12-17T02:32:49.176Z,55.47
2022-12-17T02:35:46.069Z,53.63
2022-12-17T02:41:40.281Z,50.88
2022-12-17T02:44:28.130Z,54.55
2022-12-17T02:47:16.826Z,53.50
2022-12-17T02:50:02.590Z,53.25
2022-12-17T02:52:49.458Z,59.83
2022-12-17T02:55:34.249Z,54.22
2022-12-17T02:58:18.917Z,54.67
2022-12-17T03:01:04.985Z,56.17
2022-12-17T03:03:50.567Z,61.67
2022-12-17T03:06:36.159Z,52.55
2022-12-17T03:09:22.161Z,61.13
2022-12-17T03:12:06.811Z,57.08
2022-12-17T03:14:51.664Z,63.10
2022-12-17T03:17:36.790Z,57.60
2022-12-17T03:20:22.238Z,50.22
2022-12-17T03:23:07.105Z,49.63
2022-12-17T03:25:51.999Z,53.40
2022-12-17T03:28:37.007Z,72.97
2022-12-17T03:31:26.010Z,59.45
2022-12-17T03:34:12.751Z,63.95
2022-12-17T03:36:57.511Z,54.42
2022-12-17T03:39:42.329Z,55.08
2022-12-17T03:42:27.101Z,60.33
2022-12-17T03:45:11.912Z,58.55
2022-12-17T03:48:04.067Z,56.55
2022-12-17T03:50:48.919Z,57.97
2022-12-17T03:53:33.913Z,56.13
2022-12-17T03:56:19.121Z,56.85
2022-12-17T03:59:03.925Z,61.85
2022-12-17T04:01:48.950Z,56.47
2022-12-17T04:04:33.662Z,59.90
2022-12-17T04:07:19.338Z,60.33
2022-12-17T04:10:04.281Z,57.15
2022-12-17T04:12:49.014Z,59.90
2022-12-17T04:15:34.294Z,63.83
2022-12-17T04:18:25.698Z,58.78
2022-12-17T04:21:10.441Z,62.13
2022-12-17T04:23:55.348Z,58.28
2022-12-17T04:26:46.613Z,63.05
2022-12-17T04:29:31.302Z,60.00
2022-12-17T04:32:16.380Z,60.97
2022-12-17T04:35:01.163Z,68.88
2022-12-17T04:37:45.885Z,66.80
2022-12-17T04:40:30.809Z,74.03
2022-12-17T04:43:15.658Z,74.53
2022-12-17T04:46:00.818Z,69.88
2022-12-17T04:48:45.866Z,66.20
2022-12-17T04:51:30.543Z,63.10
2022-12-17T04:54:15.397Z,70.65
2022-12-17T04:57:00.240Z,72.78
2022-12-17T04:59:45.125Z,74.63
2022-12-17T05:02:30.178Z,68.60
2022-12-17T05:05:17.356Z,63.90
2022-12-17T05:08:02.165Z,69.50
2022-12-17T05:10:46.868Z,68.03
2022-12-17T05:13:31.569Z,65.28
2022-12-17T05:16:20.614Z,66.30
2022-12-17T05:19:05.670Z,75.70
2022-12-17T05:21:50.445Z,65.35
2022-12-17T05:24:35.145Z,61.25
2022-12-17T05:27:19.825Z,63.30
2022-12-17T05:30:04.687Z,61.08
2022-12-17T05:32:49.649Z,56.72
2022-12-17T05:35:34.961Z,56.95
2022-12-17T05:38:27.402Z,68.40
2022-12-17T05:41:16.366Z,64.10
2022-12-17T05:44:01.617Z,55.65
2022-12-17T05:46:47.673Z,59.35
2022-12-17T05:49:32.707Z,57.53
2022-12-17T05:52:17.345Z,57.97
2022-12-17T05:55:02.114Z,58.30
2022-12-17T05:57:50.488Z,60.40
2022-12-17T06:00:51.235Z,58.78
2022-12-17T06:03:36.490Z,54.08
2022-12-17T06:06:21.825Z,59.78
2022-12-17T06:09:13.549Z,57.83
2022-12-17T06:12:02.553Z,60.17
2022-12-17T06:14:48.151Z,73.47
2022-12-17T06:17:34.188Z,73.78
2022-12-17T06:20:18.997Z,74.80
2022-12-17T06:23:23.643Z,69.78
2022-12-17T06:26:11.705Z,65.47
2022-12-17T06:28:56.729Z,73.68
2022-12-17T06:31:42.098Z,74.10
2022-12-17T06:34:34.445Z,76.47
2022-12-17T06:37:19.175Z,67.07
2022-12-17T06:40:04.024Z,70.30
2022-12-17T06:42:49.874Z,70.78
2022-12-17T06:45:34.975Z,53.72
2022-12-17T06:48:24.017Z,70.63
2022-12-17T06:51:08.935Z,74.20
2022-12-17T06:53:53.881Z,75.00
2022-12-17T06:56:47.918Z,78.30
2022-12-17T06:59:32.792Z,74.28
2022-12-17T07:02:19.891Z,80.68
2022-12-17T07:05:05.103Z,84.57
2022-12-17T07:07:56.002Z,70.65
2022-12-17T07:10:42.167Z,69.57
2022-12-17T07:13:28.001Z,75.75
2022-12-17T07:16:13.813Z,71.57
2022-12-17T07:18:58.856Z,87.65
2022-12-17T07:21:45.294Z,74.00
2022-12-17T07:27:15.848Z,77.00
2022-12-17T07:30:00.721Z,100.85
2022-12-17T07:32:45.851Z,86.05
2022-12-17T07:35:31.128Z,90.63
2022-12-17T07:38:20.714Z,104.68
2022-12-17T07:41:07.887Z,133.68
2022-12-17T07:43:53.788Z,97.82
2022-12-17T07:46:47.891Z,113.95
2022-12-17T07:49:55.891Z,236.75
2022-12-17T07:52:54.063Z,114.88
2022-12-17T07:55:39.873Z,91.97
2022-12-17T07:58:31.818Z,138.77
2022-12-17T08:01:21.112Z,76.35
2022-12-17T08:04:15.562Z,149.00
2022-12-17T08:07:08.394Z,151.75
2022-12-17T08:09:55.481Z,207.40
2022-12-17T08:12:46.412Z,240.18
2022-12-17T08:15:32.599Z,149.93
2022-12-17T08:18:26.234Z,135.25
2022-12-17T08:21:17.605Z,136.63
2022-12-17T08:24:12.491Z,79.25
2022-12-17T08:26:59.140Z,83.93
2022-12-17T08:29:51.970Z,102.57
2022-12-17T08:32:37.051Z,79.63
2022-12-17T08:35:23.559Z,100.78
2022-12-17T08:38:36.625Z,81.53
2022-12-17T08:41:43.662Z,80.13
2022-12-17T08:44:35.701Z,75.40
2022-12-17T08:47:20.848Z,87.85
2022-12-17T08:50:07.639Z,75.45
2022-12-17T08:52:56.981Z,85.20
2022-12-17T08:55:41.733Z,93.22
2022-12-17T08:58:26.948Z,80.30
2022-12-17T09:01:12.156Z,167.70
2022-12-17T09:03:58.333Z,117.38
2022-12-17T09:06:44.254Z,93.32
2022-12-17T09:09:29.633Z,110.72
2022-12-17T09:12:14.409Z,89.32
2022-12-17T09:14:59.181Z,170.52
2022-12-17T09:17:44.187Z,92.32
2022-12-17T09:20:29.772Z,81.32
2022-12-17T09:23:15.379Z,63.42
2022-12-17T09:26:00.627Z,89.10
2022-12-17T09:28:46.003Z,77.07
2022-12-17T09:31:37.869Z,69.85
2022-12-17T09:34:25.724Z,83.55
2022-12-17T09:37:10.720Z,97.15
2022-12-17T09:39:58.219Z,112.75
2022-12-17T09:42:59.842Z,85.20
2022-12-17T09:45:55.722Z,85.38
2022-12-17T09:48:56.210Z,118.97
2022-12-17T09:52:04.131Z,110.28
2022-12-17T13:30:17.433Z,57.35
2022-12-17T13:33:28.015Z,51.45
2022-12-17T13:36:22.094Z,53.95
2022-12-17T13:38:54.422Z,46.88
2022-12-17T13:41:28.778Z,46.55
2022-12-17T13:44:20.069Z,48.72
2022-12-17T13:47:03.080Z,44.83
2022-12-17T13:49:31.749Z,46.72
2022-12-17T13:52:30.424Z,45.78
2022-12-17T13:55:09.558Z,49.80
2022-12-17T13:57:52.622Z,49.47
2022-12-17T14:00:30.822Z,48.50
2022-12-17T14:02:57.424Z,48.17
2022-12-17T14:05:30.726Z,50.72
2022-12-17T14:08:08.323Z,51.13
2022-12-17T14:10:34.750Z,46.90
2022-12-17T14:13:08.443Z,45.03
2022-12-17T14:15:35.313Z,45.75
2022-12-17T14:18:05.282Z,46.03
2022-12-17T14:20:36.298Z,46.20
2022-12-17T14:23:17.160Z,44.85
2022-12-17T14:25:44.343Z,44.83
2022-12-17T14:28:29.065Z,46.78
2022-12-17T14:31:30.855Z,46.30
2022-12-17T14:34:10.896Z,44.92
2022-12-17T14:36:43.547Z,48.85
2022-12-17T14:39:31.602Z,49.58
2022-12-17T14:42:25.330Z,48.17
2022-12-17T14:44:54.376Z,44.50
2022-12-17T14:47:29.881Z,42.30
2022-12-17T14:50:01.214Z,47.53
2022-12-17T14:52:44.394Z,45.38
2022-12-17T14:55:55.023Z,39.67
2022-12-17T14:58:23.594Z,38.88
2022-12-17T15:01:12.395Z,44.33
2022-12-17T15:03:41.940Z,44.65
2022-12-17T15:06:17.790Z,42.95
2022-12-17T15:08:49.390Z,38.20
2022-12-17T15:11:20.134Z,45.63
2022-12-17T15:13:56.291Z,49.92
2022-12-17T15:16:23.558Z,48.78
2022-12-17T15:18:50.003Z,46.15
2022-12-17T15:21:18.469Z,44.58
2022-12-17T15:23:46.390Z,46.17
2022-12-17T15:26:15.094Z,46.25
2022-12-17T15:28:42.774Z,42.65
2022-12-17T15:31:12.165Z,37.03
2022-12-17T15:33:38.948Z,41.90
2022-12-17T15:36:07.070Z,38.10
2022-12-17T15:38:33.912Z,37.63
2022-12-17T15:41:01.765Z,40.80
2022-12-17T15:43:28.175Z,33.22
2022-12-17T15:46:01.025Z,35.13
2022-12-17T15:48:27.435Z,33.90
2022-12-17T15:50:53.841Z,36.83
2022-12-17T15:53:20.261Z,38.95
2022-12-17T15:55:46.767Z,37.45
2022-12-17T15:58:19.329Z,37.72
2022-12-17T16:00:45.754Z,38.75
2022-12-17T16:03:12.262Z,35.58
2022-12-17T16:05:38.789Z,33.92
2022-12-17T16:08:05.337Z,36.17
2022-12-17T16:10:31.839Z,35.60
2022-12-17T16:12:58.276Z,38.83
2022-12-17T16:15:33.910Z,35.60
2022-12-17T16:18:00.351Z,36.45
2022-12-17T16:20:26.760Z,38.38
2022-12-17T16:22:53.324Z,38.10
2022-12-17T16:25:19.811Z,42.83
2022-12-17T16:27:46.504Z,41.92
2022-12-17T16:30:13.709Z,40.30
2022-12-17T16:32:40.185Z,45.05
2022-12-17T16:35:06.976Z,46.00
2022-12-17T16:37:33.454Z,51.10
2022-12-17T16:40:01.044Z,44.88
2022-12-17T16:42:28.000Z,51.83
2022-12-17T16:44:54.425Z,51.45
2022-12-17T16:47:21.947Z,42.92
2022-12-17T16:49:50.601Z,46.63
2022-12-17T16:52:17.031Z,48.15
2022-12-17T16:54:45.459Z,51.25
2022-12-17T16:57:11.910Z,39.70
2022-12-17T16:59:39.687Z,45.97
2022-12-17T17:02:12.725Z,40.63
2022-12-17T17:04:44.441Z,39.20
2022-12-17T17:07:10.898Z,36.63
2022-12-17T17:09:38.327Z,44.88
2022-12-17T17:12:05.051Z,43.78
2022-12-17T17:14:31.442Z,43.05
2022-12-17T17:17:02.063Z,42.80
2022-12-17T17:19:36.567Z,51.28
2022-12-17T17:22:03.058Z,50.17
2022-12-17T17:24:29.505Z,50.13
2022-12-17T17:26:56.034Z,48.83
2022-12-17T17:29:22.944Z,43.53
2022-12-17T17:34:39.687Z,50.50
2022-12-17T17:37:06.418Z,49.50
2022-12-17T17:39:34.112Z,48.38
2022-12-17T17:42:05.246Z,52.25
2022-12-17T17:44:31.995Z,48.72
2022-12-17T17:46:59.818Z,45.75
2022-12-17T17:49:27.535Z,47.70
2022-12-17T17:52:10.971Z,48.03
2022-12-17T17:54:39.651Z,46.33
2022-12-17T17:57:16.219Z,47.15
2022-12-17T17:59:42.613Z,48.95
